Cherokee, IA (51012)

6:41 AM CDT on May 30, 2015 (GMT -0500)
Cherokee Municipal | | Change Station
CLOSE
Current Station
Airport
Location: Cherokee,
Elevation: 1227 ft
Nearby Weather Stations

Elev 1227 ft 42.73 °N, 95.56 °W | Updated 26 minutes ago

Overcast
Overcast
49 °F
Feels Like 49 °F
N
15
Wind Variable Wind from North
Gusts 21 mph

Today
High -- | Low -- °F
--% Chance of Precip.
Yesterday
High -- | Low -- °F
Precip. -- in
5:47 AM 8:52 PM
Waxing Gibbous, 90% visible
Pressure 30.15 in
Visibility 10.0 miles
Clouds Overcast 10000 ft
Dew Point 45 °F
Humidity 85%
Rainfall 0.00 in
Snow Depth Not available.
UV 0 out of 12
Pollen 8.10 out of 12
Air Quality Not available.
Flu Activity No Activity
METAR KCKP 301115Z AUTO 01013G18KT 10SM OVC100 09/07 A3015 RMK AO2 T00940070

More Conditions Fewer Conditions

Pressure 30.15 in
Visibility 10.0 miles
Clouds Overcast 10000 ft
Dew Point 45 °F
Humidity 85%
Rainfall 0.00 in
Snow Depth Not available.
UV 0 out of 12
Pollen 8.10 out of 12
Air Quality Not available.
Flu Activity No Activity
METAR KCKP 301115Z AUTO 01013G18KT 10SM OVC100 09/07 A3015 RMK AO2 T00940070

More Conditions Fewer Conditions

10-Day Weather Forecast

Almanac

Astronomy

May. 30, 2015 Rise Set
Actual Time
Civil Twilight
Nautical Twilight
Astronomical Twilight
Moon
Length of Visible Light
Length of Day
Tomorrow will be .
, % of the Moon is Illuminated

Today's Extremes

State Highs State Lows

Community

WunderPhotos

Upload Photos

1,825,484 photos uploaded!

WunderBlogs® & News

Nearby

Air Quality

  Air Quality AQ Index Pollutant
Not available.

Snow Depth

Station Depth Elevation

Earthquake Activity

City Distance Mag. Time & Date
Minimum magnitude displayed is 2.5.

Coastal Water Temperatures

Place Temperature

Stations

Nearby Weather Stations

Station Location Temp. Windchill Dew Point Humidity Wind Precip. Elev Updated Type